sensor_id;sensor_type;location;lat;lon;timestamp;P1;durP1;ratioP1;P2;durP2;ratioP2
32323;SDS011;25666;44.350;9.222;2023-04-12T00:01:47;13.60;;;4.45;;
32323;SDS011;25666;44.350;9.222;2023-04-12T00:04:12;16.42;;;4.43;;
32323;SDS011;25666;44.350;9.222;2023-04-12T00:06:38;9.38;;;4.18;;
32323;SDS011;25666;44.350;9.222;2023-04-12T00:09:04;10.10;;;4.20;;
32323;SDS011;25666;44.350;9.222;2023-04-12T00:11:30;9.27;;;3.33;;
32323;SDS011;25666;44.350;9.222;2023-04-12T00:13:56;9.30;;;3.75;;
32323;SDS011;25666;44.350;9.222;2023-04-12T00:16:21;5.28;;;3.42;;
32323;SDS011;25666;44.350;9.222;2023-04-12T00:18:47;12.13;;;4.22;;
32323;SDS011;25666;44.350;9.222;2023-04-12T00:21:13;13.88;;;4.38;;
32323;SDS011;25666;44.350;9.222;2023-04-12T00:23:43;15.90;;;4.03;;
32323;SDS011;25666;44.350;9.222;2023-04-12T00:26:13;9.00;;;3.47;;
32323;SDS011;25666;44.350;9.222;2023-04-12T00:28:41;12.05;;;4.28;;
32323;SDS011;25666;44.350;9.222;2023-04-12T00:31:07;10.15;;;3.45;;
32323;SDS011;25666;44.350;9.222;2023-04-12T00:33:33;6.45;;;3.20;;
32323;SDS011;25666;44.350;9.222;2023-04-12T00:35:59;9.00;;;3.58;;
32323;SDS011;25666;44.350;9.222;2023-04-12T00:38:25;7.47;;;3.63;;
32323;SDS011;25666;44.350;9.222;2023-04-12T00:40:50;9.68;;;4.40;;
32323;SDS011;25666;44.350;9.222;2023-04-12T00:43:16;7.47;;;3.67;;
32323;SDS011;25666;44.350;9.222;2023-04-12T00:45:46;7.80;;;3.60;;
32323;SDS011;25666;44.350;9.222;2023-04-12T00:48:12;8.65;;;4.53;;
32323;SDS011;25666;44.350;9.222;2023-04-12T00:50:39;7.15;;;4.18;;
32323;SDS011;25666;44.350;9.222;2023-04-12T00:53:14;10.65;;;3.60;;
32323;SDS011;25666;44.350;9.222;2023-04-12T00:55:42;7.25;;;3.55;;
32323;SDS011;25666;44.350;9.222;2023-04-12T00:58:09;11.90;;;5.05;;
32323;SDS011;25666;44.350;9.222;2023-04-12T01:00:34;9.38;;;3.22;;
32323;SDS011;25666;44.350;9.222;2023-04-12T01:03:00;8.95;;;3.83;;
32323;SDS011;25666;44.350;9.222;2023-04-12T01:05:29;18.58;;;4.25;;
32323;SDS011;25666;44.350;9.222;2023-04-12T01:16:13;11.75;;;4.05;;
32323;SDS011;25666;44.350;9.222;2023-04-12T01:18:42;12.27;;;3.78;;
32323;SDS011;25666;44.350;9.222;2023-04-12T01:21:19;12.07;;;4.68;;
32323;SDS011;25666;44.350;9.222;2023-04-12T01:24:02;12.30;;;4.65;;
32323;SDS011;25666;44.350;9.222;2023-04-12T01:26:42;8.80;;;4.85;;
32323;SDS011;25666;44.350;9.222;2023-04-12T01:29:14;12.52;;;4.57;;
32323;SDS011;25666;44.350;9.222;2023-04-12T01:31:52;7.80;;;3.78;;
32323;SDS011;25666;44.350;9.222;2023-04-12T01:34:21;12.32;;;5.00;;
32323;SDS011;25666;44.350;9.222;2023-04-12T01:36:49;13.13;;;4.32;;
32323;SDS011;25666;44.350;9.222;2023-04-12T01:39:15;5.93;;;3.47;;
32323;SDS011;25666;44.350;9.222;2023-04-12T01:41:41;9.57;;;4.40;;
32323;SDS011;25666;44.350;9.222;2023-04-12T01:44:13;7.72;;;4.07;;
32323;SDS011;25666;44.350;9.222;2023-04-12T01:46:43;13.77;;;4.10;;
32323;SDS011;25666;44.350;9.222;2023-04-12T01:49:11;10.15;;;4.40;;
32323;SDS011;25666;44.350;9.222;2023-04-12T01:52:00;7.57;;;3.15;;
32323;SDS011;25666;44.350;9.222;2023-04-12T01:54:33;9.38;;;3.95;;
32323;SDS011;25666;44.350;9.222;2023-04-12T01:57:03;11.57;;;4.63;;
32323;SDS011;25666;44.350;9.222;2023-04-12T01:59:38;10.57;;;4.85;;
32323;SDS011;25666;44.350;9.222;2023-04-12T02:02:08;11.30;;;4.82;;
32323;SDS011;25666;44.350;9.222;2023-04-12T02:04:35;12.98;;;5.25;;
32323;SDS011;25666;44.350;9.222;2023-04-12T02:07:02;9.68;;;4.63;;
32323;SDS011;25666;44.350;9.222;2023-04-12T02:09:28;8.57;;;5.00;;
32323;SDS011;25666;44.350;9.222;2023-04-12T02:11:54;8.25;;;4.60;;
32323;SDS011;25666;44.350;9.222;2023-04-12T02:14:20;13.40;;;5.60;;
32323;SDS011;25666;44.350;9.222;2023-04-12T02:16:46;8.25;;;4.70;;
32323;SDS011;25666;44.350;9.222;2023-04-12T02:19:12;13.63;;;5.20;;
32323;SDS011;25666;44.350;9.222;2023-04-12T02:21:40;9.45;;;4.78;;
32323;SDS011;25666;44.350;9.222;2023-04-12T02:24:07;15.57;;;4.80;;
32323;SDS011;25666;44.350;9.222;2023-04-12T02:26:34;12.70;;;4.95;;
32323;SDS011;25666;44.350;9.222;2023-04-12T02:29:01;9.63;;;4.53;;
32323;SDS011;25666;44.350;9.222;2023-04-12T02:31:28;14.52;;;4.55;;
32323;SDS011;25666;44.350;9.222;2023-04-12T02:33:56;14.35;;;5.22;;
32323;SDS011;25666;44.350;9.222;2023-04-12T02:36:21;13.50;;;5.43;;
32323;SDS011;25666;44.350;9.222;2023-04-12T02:38:47;11.80;;;4.55;;
32323;SDS011;25666;44.350;9.222;2023-04-12T02:41:17;7.50;;;3.35;;
32323;SDS011;25666;44.350;9.222;2023-04-12T02:43:43;11.45;;;4.65;;
32323;SDS011;25666;44.350;9.222;2023-04-12T02:46:09;8.45;;;4.72;;
32323;SDS011;25666;44.350;9.222;2023-04-12T02:48:44;10.65;;;4.53;;
32323;SDS011;25666;44.350;9.222;2023-04-12T02:51:10;10.07;;;4.13;;
32323;SDS011;25666;44.350;9.222;2023-04-12T02:53:37;14.00;;;4.30;;
32323;SDS011;25666;44.350;9.222;2023-04-12T02:56:11;19.33;;;3.28;;
32323;SDS011;25666;44.350;9.222;2023-04-12T02:58:37;7.90;;;3.63;;
32323;SDS011;25666;44.350;9.222;2023-04-12T03:01:03;6.57;;;3.40;;
32323;SDS011;25666;44.350;9.222;2023-04-12T03:03:34;12.30;;;4.15;;
32323;SDS011;25666;44.350;9.222;2023-04-12T03:06:10;8.73;;;3.75;;
32323;SDS011;25666;44.350;9.222;2023-04-12T03:08:36;8.80;;;3.55;;
32323;SDS011;25666;44.350;9.222;2023-04-12T03:11:02;6.80;;;2.95;;
32323;SDS011;25666;44.350;9.222;2023-04-12T03:13:27;8.95;;;4.55;;
32323;SDS011;25666;44.350;9.222;2023-04-12T03:15:54;7.43;;;3.72;;
32323;SDS011;25666;44.350;9.222;2023-04-12T03:18:27;5.03;;;2.80;;
32323;SDS011;25666;44.350;9.222;2023-04-12T03:20:53;7.72;;;3.25;;
32323;SDS011;25666;44.350;9.222;2023-04-12T03:23:18;7.22;;;3.80;;
32323;SDS011;25666;44.350;9.222;2023-04-12T03:25:50;9.40;;;3.72;;
32323;SDS011;25666;44.350;9.222;2023-04-12T03:28:27;5.18;;;3.35;;
32323;SDS011;25666;44.350;9.222;2023-04-12T03:30:53;8.73;;;3.28;;
32323;SDS011;25666;44.350;9.222;2023-04-12T03:33:22;5.32;;;3.42;;
32323;SDS011;25666;44.350;9.222;2023-04-12T03:35:50;9.60;;;3.55;;
32323;SDS011;25666;44.350;9.222;2023-04-12T03:38:16;13.35;;;3.28;;
32323;SDS011;25666;44.350;9.222;2023-04-12T03:40:42;11.85;;;2.90;;
32323;SDS011;25666;44.350;9.222;2023-04-12T03:43:08;10.52;;;3.15;;
32323;SDS011;25666;44.350;9.222;2023-04-12T03:45:33;7.57;;;3.30;;
32323;SDS011;25666;44.350;9.222;2023-04-12T03:48:01;6.38;;;3.13;;
32323;SDS011;25666;44.350;9.222;2023-04-12T03:50:29;13.82;;;3.50;;
32323;SDS011;25666;44.350;9.222;2023-04-12T03:52:56;7.00;;;3.17;;
32323;SDS011;25666;44.350;9.222;2023-04-12T03:55:27;12.83;;;4.07;;
32323;SDS011;25666;44.350;9.222;2023-04-12T03:57:52;14.38;;;4.38;;
32323;SDS011;25666;44.350;9.222;2023-04-12T04:00:21;20.13;;;4.53;;
32323;SDS011;25666;44.350;9.222;2023-04-12T04:03:00;9.15;;;4.15;;
32323;SDS011;25666;44.350;9.222;2023-04-12T04:05:30;9.05;;;3.70;;
32323;SDS011;25666;44.350;9.222;2023-04-12T04:07:57;12.93;;;4.45;;
32323;SDS011;25666;44.350;9.222;2023-04-12T04:10:29;14.15;;;4.57;;
32323;SDS011;25666;44.350;9.222;2023-04-12T04:12:55;10.98;;;4.28;;
32323;SDS011;25666;44.350;9.222;2023-04-12T04:15:21;7.57;;;3.70;;
32323;SDS011;25666;44.350;9.222;2023-04-12T04:17:48;8.43;;;3.28;;
32323;SDS011;25666;44.350;9.222;2023-04-12T04:20:17;11.35;;;4.55;;
32323;SDS011;25666;44.350;9.222;2023-04-12T04:22:47;5.57;;;3.20;;
32323;SDS011;25666;44.350;9.222;2023-04-12T04:25:13;16.75;;;3.55;;
32323;SDS011;25666;44.350;9.222;2023-04-12T04:27:41;10.68;;;3.85;;
32323;SDS011;25666;44.350;9.222;2023-04-12T04:30:10;6.55;;;3.70;;
32323;SDS011;25666;44.350;9.222;2023-04-12T04:32:41;12.95;;;4.03;;
32323;SDS011;25666;44.350;9.222;2023-04-12T04:35:08;8.93;;;3.47;;
32323;SDS011;25666;44.350;9.222;2023-04-12T04:37:45;15.40;;;4.45;;
32323;SDS011;25666;44.350;9.222;2023-04-12T04:40:13;10.70;;;4.20;;
32323;SDS011;25666;44.350;9.222;2023-04-12T04:42:39;11.80;;;4.22;;
32323;SDS011;25666;44.350;9.222;2023-04-12T04:45:07;5.20;;;3.33;;
32323;SDS011;25666;44.350;9.222;2023-04-12T04:47:39;6.00;;;3.47;;
32323;SDS011;25666;44.350;9.222;2023-04-12T04:50:05;9.90;;;3.83;;
32323;SDS011;25666;44.350;9.222;2023-04-12T04:52:31;9.02;;;3.97;;
32323;SDS011;25666;44.350;9.222;2023-04-12T04:55:02;7.65;;;3.13;;
32323;SDS011;25666;44.350;9.222;2023-04-12T04:57:33;6.88;;;3.63;;
32323;SDS011;25666;44.350;9.222;2023-04-12T04:59:59;7.68;;;3.70;;
32323;SDS011;25666;44.350;9.222;2023-04-12T05:02:24;7.65;;;4.03;;
32323;SDS011;25666;44.350;9.222;2023-04-12T05:04:50;12.60;;;4.10;;
32323;SDS011;25666;44.350;9.222;2023-04-12T05:07:19;12.63;;;3.47;;
32323;SDS011;25666;44.350;9.222;2023-04-12T05:09:46;10.65;;;3.47;;
32323;SDS011;25666;44.350;9.222;2023-04-12T05:12:12;11.68;;;4.05;;
32323;SDS011;25666;44.350;9.222;2023-04-12T05:14:41;8.85;;;3.50;;
32323;SDS011;25666;44.350;9.222;2023-04-12T05:17:07;7.05;;;3.15;;
32323;SDS011;25666;44.350;9.222;2023-04-12T05:19:33;7.10;;;4.22;;
32323;SDS011;25666;44.350;9.222;2023-04-12T05:21:58;13.70;;;4.22;;
32323;SDS011;25666;44.350;9.222;2023-04-12T05:24:23;6.43;;;3.58;;
32323;SDS011;25666;44.350;9.222;2023-04-12T05:26:49;9.05;;;3.67;;
32323;SDS011;25666;44.350;9.222;2023-04-12T05:29:15;7.00;;;3.60;;
32323;SDS011;25666;44.350;9.222;2023-04-12T05:31:41;6.32;;;3.55;;
32323;SDS011;25666;44.350;9.222;2023-04-12T05:34:13;11.48;;;3.85;;
32323;SDS011;25666;44.350;9.222;2023-04-12T05:36:48;17.50;;;4.10;;
32323;SDS011;25666;44.350;9.222;2023-04-12T05:39:14;9.15;;;3.70;;
32323;SDS011;25666;44.350;9.222;2023-04-12T05:41:40;14.00;;;4.85;;
32323;SDS011;25666;44.350;9.222;2023-04-12T05:44:05;11.75;;;4.80;;
32323;SDS011;25666;44.350;9.222;2023-04-12T05:46:31;10.93;;;4.13;;
32323;SDS011;25666;44.350;9.222;2023-04-12T05:48:56;14.00;;;4.57;;
32323;SDS011;25666;44.350;9.222;2023-04-12T05:51:22;14.68;;;4.85;;
32323;SDS011;25666;44.350;9.222;2023-04-12T05:53:48;10.77;;;5.28;;
32323;SDS011;25666;44.350;9.222;2023-04-12T05:56:13;15.93;;;4.22;;
32323;SDS011;25666;44.350;9.222;2023-04-12T05:58:40;12.98;;;4.43;;
32323;SDS011;25666;44.350;9.222;2023-04-12T06:01:06;18.05;;;5.38;;
32323;SDS011;25666;44.350;9.222;2023-04-12T06:03:32;9.88;;;4.90;;
32323;SDS011;25666;44.350;9.222;2023-04-12T06:06:06;13.15;;;4.70;;
32323;SDS011;25666;44.350;9.222;2023-04-12T06:08:32;13.27;;;4.38;;
32323;SDS011;25666;44.350;9.222;2023-04-12T06:10:59;11.65;;;5.05;;
32323;SDS011;25666;44.350;9.222;2023-04-12T06:13:25;18.90;;;5.57;;
32323;SDS011;25666;44.350;9.222;2023-04-12T06:15:51;10.05;;;5.22;;
32323;SDS011;25666;44.350;9.222;2023-04-12T06:18:17;21.52;;;4.80;;
32323;SDS011;25666;44.350;9.222;2023-04-12T06:20:43;18.42;;;5.43;;
32323;SDS011;25666;44.350;9.222;2023-04-12T06:23:09;19.67;;;5.45;;
32323;SDS011;25666;44.350;9.222;2023-04-12T06:25:35;15.35;;;5.13;;
32323;SDS011;25666;44.350;9.222;2023-04-12T06:28:03;10.90;;;5.85;;
32323;SDS011;25666;44.350;9.222;2023-04-12T06:30:30;16.15;;;5.82;;
32323;SDS011;25666;44.350;9.222;2023-04-12T06:32:56;16.00;;;5.13;;
32323;SDS011;25666;44.350;9.222;2023-04-12T06:35:21;16.73;;;5.85;;
32323;SDS011;25666;44.350;9.222;2023-04-12T06:37:47;12.80;;;5.03;;
32323;SDS011;25666;44.350;9.222;2023-04-12T06:40:13;9.45;;;4.50;;
32323;SDS011;25666;44.350;9.222;2023-04-12T06:42:39;20.80;;;4.90;;
32323;SDS011;25666;44.350;9.222;2023-04-12T06:45:04;12.98;;;5.18;;
32323;SDS011;25666;44.350;9.222;2023-04-12T06:47:30;13.95;;;4.93;;
32323;SDS011;25666;44.350;9.222;2023-04-12T06:49:56;12.98;;;4.72;;
32323;SDS011;25666;44.350;9.222;2023-04-12T06:52:25;25.52;;;5.75;;
32323;SDS011;25666;44.350;9.222;2023-04-12T06:54:51;18.08;;;5.30;;
32323;SDS011;25666;44.350;9.222;2023-04-12T06:57:17;16.05;;;4.05;;
32323;SDS011;25666;44.350;9.222;2023-04-12T06:59:42;20.90;;;4.95;;
32323;SDS011;25666;44.350;9.222;2023-04-12T07:02:08;22.50;;;5.00;;
32323;SDS011;25666;44.350;9.222;2023-04-12T07:04:33;19.40;;;4.45;;
32323;SDS011;25666;44.350;9.222;2023-04-12T07:06:59;16.02;;;4.30;;
32323;SDS011;25666;44.350;9.222;2023-04-12T07:09:25;20.55;;;4.95;;
32323;SDS011;25666;44.350;9.222;2023-04-12T07:11:50;16.90;;;5.40;;
32323;SDS011;25666;44.350;9.222;2023-04-12T07:14:16;17.95;;;6.63;;
32323;SDS011;25666;44.350;9.222;2023-04-12T07:16:42;26.13;;;5.65;;
32323;SDS011;25666;44.350;9.222;2023-04-12T07:19:07;19.02;;;5.70;;
32323;SDS011;25666;44.350;9.222;2023-04-12T07:21:33;18.08;;;4.90;;
32323;SDS011;25666;44.350;9.222;2023-04-12T07:23:58;22.00;;;5.10;;
32323;SDS011;25666;44.350;9.222;2023-04-12T07:26:24;22.98;;;5.60;;
32323;SDS011;25666;44.350;9.222;2023-04-12T07:28:50;14.85;;;4.20;;
32323;SDS011;25666;44.350;9.222;2023-04-12T07:31:16;17.35;;;5.28;;
32323;SDS011;25666;44.350;9.222;2023-04-12T07:33:42;26.98;;;6.90;;
32323;SDS011;25666;44.350;9.222;2023-04-12T07:36:07;19.73;;;5.40;;
32323;SDS011;25666;44.350;9.222;2023-04-12T07:38:33;13.65;;;4.25;;
32323;SDS011;25666;44.350;9.222;2023-04-12T07:40:59;18.15;;;5.53;;
32323;SDS011;25666;44.350;9.222;2023-04-12T07:43:24;18.80;;;6.00;;
32323;SDS011;25666;44.350;9.222;2023-04-12T07:45:50;15.00;;;4.43;;
32323;SDS011;25666;44.350;9.222;2023-04-12T07:48:16;20.50;;;5.40;;
32323;SDS011;25666;44.350;9.222;2023-04-12T07:50:41;27.23;;;5.32;;
32323;SDS011;25666;44.350;9.222;2023-04-12T07:53:17;19.63;;;5.97;;
32323;SDS011;25666;44.350;9.222;2023-04-12T07:55:47;18.25;;;5.10;;
32323;SDS011;25666;44.350;9.222;2023-04-12T07:58:14;27.95;;;5.63;;
32323;SDS011;25666;44.350;9.222;2023-04-12T08:00:43;32.60;;;6.05;;
32323;SDS011;25666;44.350;9.222;2023-04-12T08:03:10;19.52;;;6.13;;
32323;SDS011;25666;44.350;9.222;2023-04-12T08:05:37;28.02;;;6.97;;
32323;SDS011;25666;44.350;9.222;2023-04-12T08:08:02;24.75;;;5.93;;
32323;SDS011;25666;44.350;9.222;2023-04-12T08:10:28;23.98;;;6.10;;
32323;SDS011;25666;44.350;9.222;2023-04-12T08:12:55;30.35;;;7.32;;
32323;SDS011;25666;44.350;9.222;2023-04-12T08:15:20;23.38;;;6.15;;
32323;SDS011;25666;44.350;9.222;2023-04-12T08:17:46;20.77;;;6.32;;
32323;SDS011;25666;44.350;9.222;2023-04-12T08:20:12;30.23;;;7.72;;
32323;SDS011;25666;44.350;9.222;2023-04-12T08:22:40;30.45;;;7.65;;
32323;SDS011;25666;44.350;9.222;2023-04-12T08:25:07;29.65;;;6.95;;
32323;SDS011;25666;44.350;9.222;2023-04-12T08:27:32;23.80;;;7.15;;
32323;SDS011;25666;44.350;9.222;2023-04-12T08:29:58;28.08;;;7.75;;
32323;SDS011;25666;44.350;9.222;2023-04-12T08:32:24;28.83;;;7.30;;
32323;SDS011;25666;44.350;9.222;2023-04-12T08:34:49;31.35;;;7.15;;
32323;SDS011;25666;44.350;9.222;2023-04-12T08:37:15;27.83;;;8.05;;
32323;SDS011;25666;44.350;9.222;2023-04-12T08:39:41;34.13;;;8.23;;
32323;SDS011;25666;44.350;9.222;2023-04-12T08:42:07;18.30;;;6.80;;
32323;SDS011;25666;44.350;9.222;2023-04-12T08:44:37;23.63;;;6.35;;
32323;SDS011;25666;44.350;9.222;2023-04-12T08:47:04;29.20;;;7.28;;
32323;SDS011;25666;44.350;9.222;2023-04-12T08:49:31;24.52;;;6.63;;
32323;SDS011;25666;44.350;9.222;2023-04-12T08:52:08;30.75;;;7.57;;
32323;SDS011;25666;44.350;9.222;2023-04-12T08:54:35;22.60;;;7.15;;
32323;SDS011;25666;44.350;9.222;2023-04-12T08:57:02;22.23;;;6.10;;
32323;SDS011;25666;44.350;9.222;2023-04-12T08:59:29;28.50;;;7.03;;
32323;SDS011;25666;44.350;9.222;2023-04-12T09:01:56;18.33;;;6.50;;
32323;SDS011;25666;44.350;9.222;2023-04-12T09:04:22;31.65;;;6.70;;
32323;SDS011;25666;44.350;9.222;2023-04-12T09:06:49;22.17;;;6.82;;
32323;SDS011;25666;44.350;9.222;2023-04-12T09:09:16;25.85;;;5.90;;
32323;SDS011;25666;44.350;9.222;2023-04-12T09:11:41;22.20;;;5.68;;
32323;SDS011;25666;44.350;9.222;2023-04-12T09:14:20;22.55;;;5.95;;
32323;SDS011;25666;44.350;9.222;2023-04-12T09:16:47;26.73;;;7.32;;
32323;SDS011;25666;44.350;9.222;2023-04-12T09:19:13;27.70;;;6.80;;
32323;SDS011;25666;44.350;9.222;2023-04-12T09:21:55;16.08;;;6.90;;
32323;SDS011;25666;44.350;9.222;2023-04-12T09:24:20;25.60;;;4.88;;
32323;SDS011;25666;44.350;9.222;2023-04-12T09:29:27;19.83;;;4.50;;
32323;SDS011;25666;44.350;9.222;2023-04-12T09:31:54;19.70;;;5.72;;
32323;SDS011;25666;44.350;9.222;2023-04-12T09:34:21;14.57;;;5.07;;
32323;SDS011;25666;44.350;9.222;2023-04-12T09:36:46;24.02;;;4.90;;
32323;SDS011;25666;44.350;9.222;2023-04-12T09:39:12;20.25;;;5.72;;
32323;SDS011;25666;44.350;9.222;2023-04-12T09:41:37;12.75;;;4.53;;
32323;SDS011;25666;44.350;9.222;2023-04-12T09:44:04;18.25;;;6.07;;
32323;SDS011;25666;44.350;9.222;2023-04-12T09:46:30;21.73;;;5.70;;
32323;SDS011;25666;44.350;9.222;2023-04-12T09:48:56;20.98;;;5.55;;
32323;SDS011;25666;44.350;9.222;2023-04-12T09:51:33;20.33;;;5.60;;
32323;SDS011;25666;44.350;9.222;2023-04-12T09:54:01;24.88;;;6.28;;
32323;SDS011;25666;44.350;9.222;2023-04-12T09:56:32;19.70;;;6.72;;
32323;SDS011;25666;44.350;9.222;2023-04-12T09:59:01;20.67;;;6.38;;
32323;SDS011;25666;44.350;9.222;2023-04-12T10:01:28;22.77;;;6.20;;
32323;SDS011;25666;44.350;9.222;2023-04-12T10:03:59;22.40;;;5.63;;
32323;SDS011;25666;44.350;9.222;2023-04-12T10:06:25;21.80;;;6.57;;
32323;SDS011;25666;44.350;9.222;2023-04-12T10:08:52;18.75;;;6.00;;
32323;SDS011;25666;44.350;9.222;2023-04-12T10:11:18;23.80;;;6.50;;
32323;SDS011;25666;44.350;9.222;2023-04-12T10:13:44;23.35;;;6.35;;
32323;SDS011;25666;44.350;9.222;2023-04-12T10:16:12;44.28;;;15.43;;
32323;SDS011;25666;44.350;9.222;2023-04-12T10:18:39;17.98;;;7.65;;
32323;SDS011;25666;44.350;9.222;2023-04-12T10:21:08;25.50;;;7.90;;
32323;SDS011;25666;44.350;9.222;2023-04-12T10:23:33;24.45;;;7.50;;
32323;SDS011;25666;44.350;9.222;2023-04-12T10:25:59;26.58;;;6.28;;
32323;SDS011;25666;44.350;9.222;2023-04-12T10:28:29;18.10;;;6.18;;
32323;SDS011;25666;44.350;9.222;2023-04-12T10:30:57;18.58;;;6.10;;
32323;SDS011;25666;44.350;9.222;2023-04-12T10:33:28;14.77;;;6.32;;
32323;SDS011;25666;44.350;9.222;2023-04-12T10:35:59;22.15;;;7.28;;
32323;SDS011;25666;44.350;9.222;2023-04-12T10:38:43;24.85;;;5.72;;
32323;SDS011;25666;44.350;9.222;2023-04-12T10:43:41;17.35;;;5.55;;
32323;SDS011;25666;44.350;9.222;2023-04-12T10:49:06;20.77;;;4.57;;
32323;SDS011;25666;44.350;9.222;2023-04-12T10:51:33;19.58;;;4.88;;
32323;SDS011;25666;44.350;9.222;2023-04-12T10:56:43;17.50;;;5.30;;
32323;SDS011;25666;44.350;9.222;2023-04-12T11:02:15;16.45;;;4.47;;
32323;SDS011;25666;44.350;9.222;2023-04-12T11:07:52;17.08;;;5.13;;
32323;SDS011;25666;44.350;9.222;2023-04-12T11:10:37;16.05;;;4.40;;
32323;SDS011;25666;44.350;9.222;2023-04-12T11:13:07;32.08;;;4.63;;
32323;SDS011;25666;44.350;9.222;2023-04-12T11:15:33;14.48;;;4.95;;
32323;SDS011;25666;44.350;9.222;2023-04-12T11:17:59;21.42;;;5.28;;
32323;SDS011;25666;44.350;9.222;2023-04-12T11:20:30;18.17;;;3.95;;
32323;SDS011;25666;44.350;9.222;2023-04-12T11:22:58;13.63;;;4.03;;
32323;SDS011;25666;44.350;9.222;2023-04-12T11:25:25;21.55;;;4.35;;
32323;SDS011;25666;44.350;9.222;2023-04-12T11:27:53;14.00;;;4.88;;
32323;SDS011;25666;44.350;9.222;2023-04-12T11:30:20;12.10;;;3.58;;
32323;SDS011;25666;44.350;9.222;2023-04-12T11:32:47;16.05;;;4.40;;
32323;SDS011;25666;44.350;9.222;2023-04-12T11:35:16;11.07;;;4.10;;
32323;SDS011;25666;44.350;9.222;2023-04-12T11:37:44;18.13;;;3.13;;
32323;SDS011;25666;44.350;9.222;2023-04-12T11:40:09;15.98;;;3.40;;
32323;SDS011;25666;44.350;9.222;2023-04-12T11:42:35;19.23;;;3.33;;
32323;SDS011;25666;44.350;9.222;2023-04-12T11:45:03;17.48;;;3.53;;
32323;SDS011;25666;44.350;9.222;2023-04-12T11:47:30;15.18;;;3.53;;
32323;SDS011;25666;44.350;9.222;2023-04-12T11:49:56;21.17;;;4.05;;
32323;SDS011;25666;44.350;9.222;2023-04-12T11:52:27;18.65;;;3.03;;
32323;SDS011;25666;44.350;9.222;2023-04-12T11:54:54;12.57;;;2.93;;
32323;SDS011;25666;44.350;9.222;2023-04-12T11:57:22;19.38;;;4.25;;
32323;SDS011;25666;44.350;9.222;2023-04-12T11:59:48;14.68;;;3.80;;
32323;SDS011;25666;44.350;9.222;2023-04-12T12:02:15;17.23;;;3.50;;
32323;SDS011;25666;44.350;9.222;2023-04-12T12:04:45;24.60;;;4.50;;
32323;SDS011;25666;44.350;9.222;2023-04-12T12:07:12;7.22;;;3.15;;
32323;SDS011;25666;44.350;9.222;2023-04-12T12:09:39;12.52;;;4.00;;
32323;SDS011;25666;44.350;9.222;2023-04-12T12:12:06;17.98;;;3.28;;
32323;SDS011;25666;44.350;9.222;2023-04-12T12:14:34;11.23;;;3.13;;
32323;SDS011;25666;44.350;9.222;2023-04-12T12:17:00;14.98;;;3.33;;
32323;SDS011;25666;44.350;9.222;2023-04-12T12:19:35;15.55;;;3.80;;
32323;SDS011;25666;44.350;9.222;2023-04-12T12:22:14;25.42;;;3.30;;
32323;SDS011;25666;44.350;9.222;2023-04-12T12:24:51;14.73;;;3.13;;
32323;SDS011;25666;44.350;9.222;2023-04-12T12:27:21;18.50;;;3.55;;
32323;SDS011;25666;44.350;9.222;2023-04-12T12:29:52;12.32;;;2.85;;
32323;SDS011;25666;44.350;9.222;2023-04-12T12:32:19;17.75;;;3.92;;
32323;SDS011;25666;44.350;9.222;2023-04-12T12:34:54;24.23;;;2.88;;
32323;SDS011;25666;44.350;9.222;2023-04-12T12:37:24;15.63;;;3.40;;
32323;SDS011;25666;44.350;9.222;2023-04-12T12:42:32;20.70;;;3.88;;
32323;SDS011;25666;44.350;9.222;2023-04-12T12:44:58;11.65;;;2.67;;
32323;SDS011;25666;44.350;9.222;2023-04-12T12:47:24;15.00;;;3.88;;
32323;SDS011;25666;44.350;9.222;2023-04-12T12:49:49;14.35;;;2.80;;
32323;SDS011;25666;44.350;9.222;2023-04-12T12:52:15;12.35;;;3.03;;
32323;SDS011;25666;44.350;9.222;2023-04-12T12:54:40;16.42;;;3.20;;
32323;SDS011;25666;44.350;9.222;2023-04-12T12:57:06;10.60;;;3.03;;
32323;SDS011;25666;44.350;9.222;2023-04-12T12:59:31;16.23;;;2.67;;
32323;SDS011;25666;44.350;9.222;2023-04-12T13:01:57;14.73;;;3.40;;
32323;SDS011;25666;44.350;9.222;2023-04-12T13:04:22;17.45;;;3.55;;
32323;SDS011;25666;44.350;9.222;2023-04-12T13:06:48;13.93;;;3.45;;
32323;SDS011;25666;44.350;9.222;2023-04-12T13:09:14;17.38;;;2.92;;
32323;SDS011;25666;44.350;9.222;2023-04-12T13:11:40;15.73;;;3.63;;
32323;SDS011;25666;44.350;9.222;2023-04-12T13:14:05;14.45;;;2.83;;
32323;SDS011;25666;44.350;9.222;2023-04-12T13:16:31;16.73;;;2.75;;
32323;SDS011;25666;44.350;9.222;2023-04-12T13:18:56;13.40;;;2.70;;
32323;SDS011;25666;44.350;9.222;2023-04-12T13:21:22;26.27;;;6.40;;
32323;SDS011;25666;44.350;9.222;2023-04-12T13:23:47;14.18;;;2.58;;
32323;SDS011;25666;44.350;9.222;2023-04-12T13:26:13;13.52;;;3.42;;
32323;SDS011;25666;44.350;9.222;2023-04-12T13:28:38;17.83;;;3.42;;
32323;SDS011;25666;44.350;9.222;2023-04-12T13:31:04;9.68;;;3.63;;
32323;SDS011;25666;44.350;9.222;2023-04-12T13:33:30;14.70;;;2.80;;
32323;SDS011;25666;44.350;9.222;2023-04-12T13:35:55;12.77;;;2.55;;
32323;SDS011;25666;44.350;9.222;2023-04-12T13:38:21;13.60;;;2.92;;
32323;SDS011;25666;44.350;9.222;2023-04-12T13:40:47;19.05;;;3.38;;
32323;SDS011;25666;44.350;9.222;2023-04-12T13:43:12;16.02;;;3.28;;
32323;SDS011;25666;44.350;9.222;2023-04-12T13:45:38;14.73;;;2.67;;
32323;SDS011;25666;44.350;9.222;2023-04-12T13:48:03;10.02;;;3.38;;
32323;SDS011;25666;44.350;9.222;2023-04-12T13:50:29;13.55;;;3.38;;
32323;SDS011;25666;44.350;9.222;2023-04-12T13:52:54;13.07;;;3.00;;
32323;SDS011;25666;44.350;9.222;2023-04-12T13:55:20;13.93;;;3.20;;
32323;SDS011;25666;44.350;9.222;2023-04-12T13:57:45;16.33;;;2.85;;
32323;SDS011;25666;44.350;9.222;2023-04-12T14:00:11;10.90;;;2.83;;
32323;SDS011;25666;44.350;9.222;2023-04-12T14:02:37;12.45;;;3.47;;
32323;SDS011;25666;44.350;9.222;2023-04-12T14:05:03;14.13;;;3.15;;
32323;SDS011;25666;44.350;9.222;2023-04-12T14:07:29;15.75;;;3.25;;
32323;SDS011;25666;44.350;9.222;2023-04-12T14:09:54;17.23;;;3.20;;
32323;SDS011;25666;44.350;9.222;2023-04-12T14:12:21;15.65;;;2.83;;
32323;SDS011;25666;44.350;9.222;2023-04-12T14:14:47;15.90;;;2.50;;
32323;SDS011;25666;44.350;9.222;2023-04-12T14:17:12;19.05;;;3.45;;
32323;SDS011;25666;44.350;9.222;2023-04-12T14:19:38;11.40;;;3.00;;
32323;SDS011;25666;44.350;9.222;2023-04-12T14:22:03;11.65;;;3.50;;
32323;SDS011;25666;44.350;9.222;2023-04-12T14:24:29;20.65;;;3.95;;
32323;SDS011;25666;44.350;9.222;2023-04-12T14:26:55;17.45;;;3.40;;
32323;SDS011;25666;44.350;9.222;2023-04-12T14:29:21;7.13;;;2.47;;
32323;SDS011;25666;44.350;9.222;2023-04-12T14:31:47;10.43;;;2.65;;
32323;SDS011;25666;44.350;9.222;2023-04-12T14:34:12;16.17;;;2.63;;
32323;SDS011;25666;44.350;9.222;2023-04-12T14:36:37;14.80;;;4.10;;
32323;SDS011;25666;44.350;9.222;2023-04-12T14:39:03;15.43;;;3.05;;
32323;SDS011;25666;44.350;9.222;2023-04-12T14:41:30;19.60;;;4.28;;
32323;SDS011;25666;44.350;9.222;2023-04-12T14:43:58;16.88;;;2.90;;
32323;SDS011;25666;44.350;9.222;2023-04-12T14:46:24;15.13;;;2.72;;
32323;SDS011;25666;44.350;9.222;2023-04-12T14:48:52;14.00;;;3.15;;
32323;SDS011;25666;44.350;9.222;2023-04-12T14:51:18;7.93;;;2.53;;
32323;SDS011;25666;44.350;9.222;2023-04-12T14:53:43;11.20;;;2.70;;
32323;SDS011;25666;44.350;9.222;2023-04-12T14:56:30;13.63;;;2.80;;
32323;SDS011;25666;44.350;9.222;2023-04-12T14:58:55;16.35;;;3.20;;
32323;SDS011;25666;44.350;9.222;2023-04-12T15:01:21;10.90;;;3.90;;
32323;SDS011;25666;44.350;9.222;2023-04-12T15:03:48;14.18;;;3.40;;
32323;SDS011;25666;44.350;9.222;2023-04-12T15:06:15;11.70;;;2.63;;
32323;SDS011;25666;44.350;9.222;2023-04-12T15:08:41;13.57;;;2.67;;